Time;durP1;ratioP1;P1;durP2;ratioP2;P2;SDS_P1;SDS_P2;PMS_P1;PMS_P2;Temp;Humidity;BMP_temperature;BMP_pressure;BME280_temperature;BME280_humidity;BME280_pressure;Samples;Min_cycle;Max_cycle;Signal;HPM_P1;HPM_P2
2021/04/24 00:01:44;;;;;;;17.10;6.63;;;;;;;3.89;64.95;99405.05;240204;1196;23116;-78
2021/04/24 00:06:47;;;;;;;18.50;8.30;;;;;;;3.91;64.78;99410.91;239838;1196;23371;-79
2021/04/24 00:11:49;;;;;;;16.80;8.67;;;;;;;3.96;65.17;99406.77;239881;1196;23111;-79
2021/04/24 00:16:53;;;;;;;17.27;8.57;;;;;;;3.99;64.87;99406.30;239541;1196;23092;-78
2021/04/24 00:21:56;;;;;;;17.87;8.63;;;;;;;4.01;64.99;99404.24;239753;1196;22952;-79
2021/04/24 00:26:58;;;;;;;17.70;9.20;;;;;;;4.03;64.71;99405.63;239831;1196;23246;-79
2021/04/24 00:32:02;;;;;;;18.85;9.80;;;;;;;4.07;64.67;99398.02;239911;1196;23122;-80
2021/04/24 00:37:05;;;;;;;19.85;9.25;;;;;;;4.09;64.57;99399.41;240189;1196;23115;-79
2021/04/24 00:42:07;;;;;;;16.30;7.80;;;;;;;4.10;64.58;99410.83;240041;1196;23126;-79
2021/04/24 00:47:10;;;;;;;18.33;8.43;;;;;;;4.08;64.94;99391.67;240101;1196;23141;-79
2021/04/24 00:52:14;;;;;;;15.75;7.45;;;;;;;4.05;64.79;99400.09;239477;1196;23571;-78
2021/04/24 00:57:17;;;;;;;18.37;8.10;;;;;;;4.05;64.79;99408.05;239888;1195;24009;-79
2021/04/24 01:02:20;;;;;;;17.67;8.23;;;;;;;4.05;65.18;99408.84;240280;1196;23082;-78
2021/04/24 01:07:23;;;;;;;16.60;8.40;;;;;;;4.05;64.84;99403.55;240056;1196;24539;-78
2021/04/24 01:12:26;;;;;;;14.40;8.37;;;;;;;4.04;65.05;99393.17;239952;1195;23249;-79
2021/04/24 01:17:29;;;;;;;15.40;7.15;;;;;;;4.04;65.29;99390.52;240471;1195;23574;-79
2021/04/24 01:22:34;;;;;;;12.70;6.70;;;;;;;4.04;65.64;99383.39;240397;1199;23127;-79
2021/04/24 01:27:39;;;;;;;13.67;7.27;;;;;;;4.04;65.30;99367.48;240007;1199;23127;-79
2021/04/24 01:32:42;;;;;;;15.70;6.95;;;;;;;4.04;65.53;99371.96;240149;1196;23098;-78
2021/04/24 01:37:46;;;;;;;13.30;6.90;;;;;;;4.05;65.45;99378.89;239846;1196;23138;-77
2021/04/24 01:42:50;;;;;;;18.23;7.23;;;;;;;4.10;65.51;99377.16;239702;1196;23303;-78
2021/04/24 01:47:56;;;;;;;11.90;6.20;;;;;;;4.13;65.55;99375.89;239676;1196;23269;-79
2021/04/24 01:53:02;;;;;;;17.43;7.77;;;;;;;4.17;65.75;99381.52;239878;1196;23174;-79
2021/04/24 01:58:10;;;;;;;12.30;6.43;;;;;;;4.23;65.64;99378.77;239722;1196;23122;-79
2021/04/24 02:03:14;;;;;;;11.33;6.73;;;;;;;4.27;65.68;99368.52;239634;1196;23106;-79
2021/04/24 02:08:23;;;;;;;14.60;7.65;;;;;;;4.24;65.42;99379.56;240022;1196;23130;-79
2021/04/24 02:13:29;;;;;;;14.33;7.67;;;;;;;4.22;66.05;99373.69;239992;1196;23118;-78
2021/04/24 02:18:32;;;;;;;13.27;5.60;;;;;;;4.20;65.69;99376.58;239557;1196;23131;-78
2021/04/24 02:23:38;;;;;;;12.23;6.30;;;;;;;4.20;65.82;99378.44;240210;1196;23116;-79
2021/04/24 02:28:40;;;;;;;12.00;6.03;;;;;;;4.18;65.75;99372.54;239903;1196;24686;-79
2021/04/24 02:33:43;;;;;;;10.03;5.33;;;;;;;4.15;65.61;99380.97;239553;1195;23107;-78
2021/04/24 02:38:51;;;;;;;9.70;5.90;;;;;;;4.10;65.80;99379.81;239990;1196;23122;-78
2021/04/24 02:43:54;;;;;;;13.50;6.70;;;;;;;4.09;66.64;99382.70;240109;1196;23130;-78
2021/04/24 02:48:57;;;;;;;14.37;6.37;;;;;;;4.15;66.77;99383.61;240067;1196;23138;-80
2021/04/24 02:54:00;;;;;;;10.20;5.67;;;;;;;4.22;66.61;99400.21;239810;1196;23114;-78
2021/04/24 02:59:03;;;;;;;10.30;5.47;;;;;;;4.25;66.77;99402.40;239902;1196;23118;-78
2021/04/24 03:04:06;;;;;;;9.55;5.40;;;;;;;4.21;66.59;99402.07;240128;1195;23244;-79
2021/04/24 03:09:09;;;;;;;11.23;5.90;;;;;;;4.18;66.83;99397.20;240147;1196;23123;-79
2021/04/24 03:14:12;;;;;;;14.00;6.10;;;;;;;4.15;66.94;99389.72;240154;1196;23116;-79
2021/04/24 03:19:15;;;;;;;12.90;6.60;;;;;;;4.14;66.94;99396.08;240092;1196;23239;-78
2021/04/24 03:24:17;;;;;;;12.35;6.50;;;;;;;4.10;67.28;99397.58;240130;1196;23124;-79
2021/04/24 03:29:21;;;;;;;10.60;6.30;;;;;;;4.06;67.37;99401.72;240022;1196;23163;-79
2021/04/24 03:34:23;;;;;;;12.17;7.07;;;;;;;4.07;67.40;99405.97;239901;1196;23239;-79
2021/04/24 03:39:27;;;;;;;12.80;6.47;;;;;;;4.08;67.73;99410.23;239790;1196;23118;-78
2021/04/24 03:44:31;;;;;;;12.17;6.70;;;;;;;4.08;67.88;99411.03;239566;1196;23118;-78
2021/04/24 03:49:34;;;;;;;12.65;6.15;;;;;;;4.06;68.31;99407.82;239929;1196;23115;-78
2021/04/24 03:54:37;;;;;;;13.37;5.77;;;;;;;4.09;68.51;99407.36;240166;1196;23115;-78
2021/04/24 03:59:41;;;;;;;14.93;7.03;;;;;;;4.07;68.39;99408.62;240168;1196;23112;-80
2021/04/24 04:04:43;;;;;;;15.60;7.25;;;;;;;4.05;68.35;99402.75;239885;1196;23135;-79
2021/04/24 04:09:47;;;;;;;15.97;8.30;;;;;;;4.05;68.70;99414.16;240224;1196;23141;-79
2021/04/24 04:14:53;;;;;;;13.90;7.23;;;;;;;4.07;68.80;99405.97;239951;1196;23119;-78
2021/04/24 04:19:57;;;;;;;14.75;7.10;;;;;;;4.06;68.88;99391.91;239801;1196;23121;-78
2021/04/24 04:25:00;;;;;;;11.00;6.10;;;;;;;4.05;69.08;99398.24;239982;1195;23119;-78
2021/04/24 04:30:13;;;;;;;12.17;6.77;;;;;;;4.05;69.09;99397.45;239499;1195;23161;-78
2021/04/24 04:35:17;;;;;;;13.07;7.10;;;;;;;4.15;69.05;99397.67;239836;1196;23118;-78
2021/04/24 04:40:22;;;;;;;13.83;7.27;;;;;;;4.33;69.50;99399.40;239700;1196;23136;-79
2021/04/24 04:45:25;;;;;;;13.40;7.95;;;;;;;4.45;69.44;99397.55;239896;1196;23122;-78
2021/04/24 04:50:33;;;;;;;16.00;7.83;;;;;;;4.60;69.38;99409.52;239973;1196;23111;-78
2021/04/24 04:55:36;;;;;;;16.80;8.40;;;;;;;4.72;68.99;99414.82;240258;1196;25238;-78
2021/04/24 05:00:39;;;;;;;15.90;9.20;;;;;;;4.93;69.14;99419.49;239752;1196;23131;-78
2021/04/24 05:05:42;;;;;;;16.20;8.05;;;;;;;5.13;69.17;99428.91;239587;1196;23254;-78
2021/04/24 05:10:45;;;;;;;20.10;10.17;;;;;;;5.36;69.01;99440.48;240066;1196;23125;-78
2021/04/24 05:15:48;;;;;;;20.20;9.40;;;;;;;5.59;68.69;99443.03;239998;1195;23384;-78
2021/04/24 05:20:51;;;;;;;19.30;9.00;;;;;;;5.76;68.45;99444.92;240114;1196;23144;-78
2021/04/24 05:25:54;;;;;;;15.93;8.23;;;;;;;5.79;67.55;99450.58;239649;1196;23105;-79
2021/04/24 05:30:58;;;;;;;13.67;7.77;;;;;;;5.82;67.24;99447.43;239494;1196;23122;-78
2021/04/24 05:36:07;;;;;;;12.90;7.90;;;;;;;5.78;67.53;99442.84;239943;1196;23138;-78
2021/04/24 05:41:13;;;;;;;14.75;7.38;;;;;;;5.76;66.76;99447.58;240414;1196;23118;-79
2021/04/24 05:46:17;;;;;;;13.93;8.73;;;;;;;5.73;67.29;99442.75;239861;1196;23254;-77
2021/04/24 05:51:22;;;;;;;12.47;6.97;;;;;;;5.77;67.26;99439.36;239824;1196;24655;-78
2021/04/24 05:56:24;;;;;;;13.80;7.00;;;;;;;5.80;67.28;99430.10;240283;1195;27057;-79
2021/04/24 06:01:28;;;;;;;12.87;7.23;;;;;;;5.81;66.30;99434.38;240099;1195;26227;-78
2021/04/24 06:06:32;;;;;;;13.17;7.17;;;;;;;5.92;66.69;99438.02;239890;1196;23135;-78
2021/04/24 06:11:36;;;;;;;11.80;6.07;;;;;;;6.06;66.09;99441.17;239478;1194;23146;-78
2021/04/24 06:16:39;;;;;;;9.83;5.93;;;;;;;6.12;65.56;99437.56;240490;1196;26281;-78
2021/04/24 06:21:42;;;;;;;7.43;4.93;;;;;;;6.24;65.07;99430.30;239764;1196;23246;-78
2021/04/24 06:26:47;;;;;;;9.90;5.53;;;;;;;6.32;63.10;99423.75;239583;1196;23120;-78
2021/04/24 06:31:49;;;;;;;7.03;3.03;;;;;;;6.44;61.28;99416.48;239442;1196;23245;-78
2021/04/24 06:36:52;;;;;;;10.17;3.60;;;;;;;6.60;60.76;99422.80;239933;1196;23127;-78
2021/04/24 06:41:55;;;;;;;7.37;3.20;;;;;;;6.76;60.35;99410.51;239668;1200;26000;-78
2021/04/24 06:46:58;;;;;;;6.40;3.90;;;;;;;6.97;59.09;99408.89;239913;1195;23120;-77
2021/04/24 06:52:01;;;;;;;12.23;4.93;;;;;;;7.14;60.57;99410.68;240125;1199;23125;-77
2021/04/24 06:57:03;;;;;;;12.40;6.07;;;;;;;7.32;59.73;99410.34;240113;1196;23150;-78
2021/04/24 07:02:09;;;;;;;10.10;4.87;;;;;;;7.50;59.85;99406.52;240511;1198;23138;-76
2021/04/24 07:07:12;;;;;;;7.25;4.15;;;;;;;7.70;60.39;99395.22;240822;1196;23137;-75
2021/04/24 07:12:15;;;;;;;8.03;4.40;;;;;;;7.96;60.05;99394.62;239841;1196;23121;-76
2021/04/24 07:17:17;;;;;;;8.43;4.07;;;;;;;8.16;59.39;99391.30;240499;1196;27245;-77
2021/04/24 07:22:20;;;;;;;7.80;4.70;;;;;;;8.37;59.22;99387.69;240401;1196;23162;-78
2021/04/24 07:27:23;;;;;;;8.03;4.40;;;;;;;8.56;57.52;99384.60;240043;1196;23104;-78
2021/04/24 07:32:26;;;;;;;8.17;3.93;;;;;;;8.76;58.13;99380.41;240098;1196;23393;-78
2021/04/24 07:37:29;;;;;;;8.53;3.93;;;;;;;9.04;58.32;99390.68;240194;1199;23118;-80
2021/04/24 07:42:33;;;;;;;7.23;3.90;;;;;;;9.28;57.10;99390.20;240462;1196;23106;-77
2021/04/24 07:47:36;;;;;;;8.10;4.10;;;;;;;9.44;56.34;99384.88;242387;1196;23124;-81
2021/04/24 07:52:39;;;;;;;5.40;3.27;;;;;;;9.70;56.58;99393.73;241558;1196;23132;-78
2021/04/24 07:57:43;;;;;;;5.43;2.77;;;;;;;9.89;53.33;99393.98;240457;1196;23124;-79
2021/04/24 08:02:46;;;;;;;5.70;2.55;;;;;;;10.02;53.00;99393.45;241525;1196;23110;-82
2021/04/24 08:07:48;;;;;;;3.13;2.20;;;;;;;10.19;52.24;99392.38;242517;1196;23115;-83
2021/04/24 08:12:52;;;;;;;2.80;1.80;;;;;;;10.36;49.81;99379.50;242326;1196;23141;-84
2021/04/24 08:17:54;;;;;;;5.65;2.15;;;;;;;10.50;49.14;99376.26;242505;1194;23145;-82
2021/04/24 08:22:57;;;;;;;2.70;1.50;;;;;;;10.62;47.41;99374.08;242458;1194;23116;-81
2021/04/24 08:28:00;;;;;;;4.50;1.90;;;;;;;10.74;46.43;99384.47;242230;1196;23154;-82
2021/04/24 08:33:05;;;;;;;3.13;2.03;;;;;;;10.78;47.02;99380.17;242105;1195;23116;-81
2021/04/24 08:38:08;;;;;;;4.90;2.00;;;;;;;10.92;47.18;99383.06;242487;1196;23206;-81
2021/04/24 08:43:12;;;;;;;4.10;2.20;;;;;;;11.55;47.08;99385.09;242521;1195;23098;-80
2021/04/24 08:48:19;;;;;;;3.67;2.27;;;;;;;12.04;46.54;99383.38;242167;1196;23107;-81
2021/04/24 08:53:22;;;;;;;6.90;1.90;;;;;;;12.44;44.67;99384.05;241954;1195;23120;-82
2021/04/24 08:58:25;;;;;;;3.23;1.57;;;;;;;12.75;44.57;99389.08;241799;1196;23069;-81
2021/04/24 09:03:27;;;;;;;2.90;1.80;;;;;;;12.97;43.65;99377.78;241884;1196;23219;-81
2021/04/24 09:08:31;;;;;;;4.25;2.80;;;;;;;13.17;42.12;99392.83;242157;1196;23281;-81
2021/04/24 09:13:33;;;;;;;5.13;2.80;;;;;;;13.13;41.96;99375.67;242190;1195;23160;-81
2021/04/24 09:18:36;;;;;;;3.85;2.40;;;;;;;13.11;42.67;99377.86;242438;1194;22867;-81
2021/04/24 09:23:39;;;;;;;5.77;1.97;;;;;;;13.02;42.61;99376.91;242133;1194;23120;-81
2021/04/24 09:28:44;;;;;;;4.63;2.50;;;;;;;12.74;42.24;99368.65;242048;1195;23143;-81
2021/04/24 09:33:50;;;;;;;4.10;2.10;;;;;;;12.44;42.21;99372.52;241883;1195;26268;-81
2021/04/24 09:38:53;;;;;;;4.03;2.10;;;;;;;12.37;41.75;99370.16;241844;1196;26222;-79
2021/04/24 09:44:04;;;;;;;4.50;1.93;;;;;;;12.29;41.50;99370.78;240732;1193;23129;-80
2021/04/24 09:49:30;;;;;;;9.00;5.20;;;;;;;12.27;42.69;99356.83;240644;1196;23102;-78
2021/04/24 09:54:45;;;;;;;15.10;9.00;;;;;;;12.69;43.10;99352.60;240123;1196;23136;-78
2021/04/24 09:59:53;;;;;;;5.25;3.00;;;;;;;12.98;42.70;99343.61;240379;1196;24900;-79
2021/04/24 10:05:25;;;;;;;5.90;2.20;;;;;;;13.17;41.60;99349.79;240339;1196;26235;-77
2021/04/24 10:10:31;;;;;;;3.63;1.80;;;;;;;13.18;41.63;99345.23;239947;1196;23107;-79
2021/04/24 10:15:42;;;;;;;3.95;1.90;;;;;;;12.95;40.28;99341.50;240989;1196;23124;-78
2021/04/24 10:20:47;;;;;;;1.67;1.50;;;;;;;12.80;39.97;99335.25;241692;1194;23198;-79
2021/04/24 10:25:49;;;;;;;3.80;2.00;;;;;;;12.73;40.16;99347.44;241399;1196;26003;-77
2021/04/24 10:30:54;;;;;;;3.65;1.90;;;;;;;12.57;39.16;99331.50;241024;1196;23129;-79
2021/04/24 10:35:57;;;;;;;3.40;2.00;;;;;;;12.49;40.11;99322.20;240865;1196;23148;-79
2021/04/24 10:41:00;;;;;;;3.90;1.80;;;;;;;12.82;40.67;99311.55;240528;1196;25958;-78
2021/04/24 10:46:26;;;;;;;4.45;2.45;;;;;;;13.02;40.27;99306.98;240392;1196;23129;-78
2021/04/24 10:51:52;;;;;;;4.95;2.20;;;;;;;13.24;39.67;99305.59;240300;1196;23115;-79
2021/04/24 10:56:55;;;;;;;4.35;2.00;;;;;;;13.31;39.56;99296.05;241487;1195;23148;-78
2021/04/24 11:02:01;;;;;;;3.55;1.90;;;;;;;13.49;39.81;99294.44;240191;1196;23113;-78
2021/04/24 11:07:17;;;;;;;5.40;3.40;;;;;;;13.76;39.38;99289.42;239360;1196;23126;-78
2021/04/24 11:12:21;;;;;;;2.90;1.80;;;;;;;13.75;38.51;99290.52;239551;1196;23116;-77
2021/04/24 11:17:24;;;;;;;4.25;2.25;;;;;;;13.74;38.54;99286.22;239588;1196;23140;-76
2021/04/24 11:22:39;;;;;;;8.90;2.97;;;;;;;13.74;38.60;99289.73;239564;1199;27217;-77
2021/04/24 11:28:11;;;;;;;6.10;3.00;;;;;;;13.66;38.88;99287.71;239205;1199;26408;-77
2021/04/24 11:33:38;;;;;;;3.77;2.17;;;;;;;13.61;38.04;99291.30;239392;1196;23138;-78
2021/04/24 11:38:53;;;;;;;5.30;2.30;;;;;;;13.45;39.07;99288.05;239413;1196;23208;-77
2021/04/24 11:43:57;;;;;;;5.80;2.30;;;;;;;13.66;39.82;99276.94;239381;1196;23119;-77
2021/04/24 11:49:03;;;;;;;4.10;2.40;;;;;;;14.04;40.10;99277.56;239330;1196;23539;-78
2021/04/24 11:54:10;;;;;;;6.53;2.20;;;;;;;14.34;38.54;99270.00;239437;1196;23108;-77
2021/04/24 11:59:20;;;;;;;4.00;2.40;;;;;;;14.36;38.72;99280.47;239550;1199;23134;-79
2021/04/24 12:04:32;;;;;;;5.63;2.90;;;;;;;14.42;37.27;99273.86;239482;1197;25968;-77
2021/04/24 12:09:54;;;;;;;5.00;2.53;;;;;;;14.60;38.05;99268.66;239625;1196;23165;-77
2021/04/24 12:15:22;;;;;;;7.60;2.30;;;;;;;14.45;36.99;99254.42;239379;1199;23110;-77
2021/04/24 12:20:37;;;;;;;8.60;5.10;;;;;;;14.05;36.33;99248.75;239510;1196;23111;-77
2021/04/24 12:25:43;;;;;;;5.50;3.20;;;;;;;13.82;37.63;99251.34;240923;1196;23104;-76
2021/04/24 12:30:48;;;;;;;5.60;2.40;;;;;;;13.43;36.94;99247.19;239919;1196;23118;-77
2021/04/24 12:36:00;;;;;;;4.20;2.70;;;;;;;13.27;37.41;99256.58;239496;1196;23563;-77
2021/04/24 12:41:04;;;;;;;4.57;2.70;;;;;;;13.15;38.51;99238.19;239518;1196;24747;-77
2021/04/24 12:46:10;;;;;;;5.00;2.70;;;;;;;13.24;38.57;99246.41;239313;1196;24591;-77
2021/04/24 12:51:21;;;;;;;6.05;2.80;;;;;;;13.28;37.89;99234.75;239266;1196;25987;-76
2021/04/24 12:56:31;;;;;;;4.60;2.60;;;;;;;13.37;38.58;99237.59;239776;1196;23105;-77
2021/04/24 13:01:35;;;;;;;6.60;2.70;;;;;;;13.87;40.15;99223.52;239287;1199;23238;-77
2021/04/24 13:06:53;;;;;;;15.10;10.55;;;;;;;14.34;39.06;99236.84;239244;1199;23827;-77
2021/04/24 13:11:56;;;;;;;13.90;10.27;;;;;;;14.31;38.49;99232.06;239519;1198;23196;-77
2021/04/24 13:17:09;;;;;;;8.63;5.97;;;;;;;14.10;38.59;99218.21;239518;1196;23115;-77
2021/04/24 13:22:12;;;;;;;12.30;8.20;;;;;;;14.00;39.52;99219.22;239433;1196;23410;-77
2021/04/24 13:27:23;;;;;;;8.90;5.00;;;;;;;13.85;39.48;99220.30;239596;1196;23128;-77
2021/04/24 13:32:26;;;;;;;12.20;7.20;;;;;;;13.80;40.17;99207.74;239606;1196;26127;-77
2021/04/24 13:37:32;;;;;;;15.70;10.27;;;;;;;13.78;39.79;99203.75;239484;1196;23144;-77
2021/04/24 13:42:43;;;;;;;7.67;5.67;;;;;;;13.66;39.67;99213.13;239536;1196;23314;-77
2021/04/24 13:48:01;;;;;;;11.60;7.10;;;;;;;13.60;39.53;99216.20;239501;1199;23128;-77
2021/04/24 13:53:11;;;;;;;8.15;5.53;;;;;;;13.67;39.93;99195.88;239662;1196;23166;-77
2021/04/24 13:58:19;;;;;;;8.50;4.33;;;;;;;13.59;40.69;99193.09;239372;1196;23209;-77
2021/04/24 14:03:21;;;;;;;19.27;13.07;;;;;;;13.67;41.24;99193.19;240174;1196;23119;-77
2021/04/24 14:08:25;;;;;;;16.80;10.70;;;;;;;13.74;40.88;99200.88;239479;1196;23115;-77
2021/04/24 14:13:28;;;;;;;8.90;4.00;;;;;;;13.54;40.02;99185.09;239554;1196;23120;-76
2021/04/24 14:18:38;;;;;;;5.33;3.03;;;;;;;13.36;39.81;99182.20;239505;1196;23214;-76
2021/04/24 14:23:43;;;;;;;7.05;3.40;;;;;;;13.05;41.01;99185.36;239142;1199;26113;-77
2021/04/24 14:28:47;;;;;;;7.45;3.40;;;;;;;12.95;41.63;99175.57;239533;1196;23116;-77
2021/04/24 14:33:52;;;;;;;7.55;3.70;;;;;;;12.94;41.85;99171.31;239416;1199;23331;-77
2021/04/24 14:38:56;;;;;;;7.15;3.70;;;;;;;12.88;41.91;99172.47;239133;1199;23226;-77
2021/04/24 14:43:59;;;;;;;6.00;4.23;;;;;;;12.68;42.28;99162.84;239522;1196;23143;-77
2021/04/24 14:49:03;;;;;;;10.00;3.93;;;;;;;12.54;42.87;99167.37;239474;1196;23119;-77
2021/04/24 14:54:06;;;;;;;8.93;4.20;;;;;;;12.41;42.79;99166.19;239551;1196;23099;-76
2021/04/24 14:59:08;;;;;;;6.10;3.55;;;;;;;12.35;43.22;99165.46;239251;1196;23141;-78
2021/04/24 15:04:11;;;;;;;25.30;15.90;;;;;;;12.39;43.60;99161.11;239341;1196;23266;-77
2021/04/24 15:09:14;;;;;;;18.20;12.15;;;;;;;12.34;44.03;99155.83;239498;1196;23314;-76
2021/04/24 15:14:17;;;;;;;34.13;22.47;;;;;;;12.41;44.43;99152.75;239378;1196;23112;-77
2021/04/24 15:19:21;;;;;;;13.10;7.70;;;;;;;12.48;44.10;99153.20;239395;1196;26220;-76
2021/04/24 15:24:24;;;;;;;10.60;6.10;;;;;;;12.47;44.17;99144.33;239229;1196;23131;-76
2021/04/24 15:29:30;;;;;;;12.80;5.65;;;;;;;12.46;44.50;99150.78;239317;1195;23264;-77
2021/04/24 15:34:33;;;;;;;6.53;4.00;;;;;;;12.61;44.35;99140.92;239257;1196;23166;-77
2021/04/24 15:39:36;;;;;;;8.00;4.20;;;;;;;12.87;44.84;99140.50;239499;1196;23117;-76
2021/04/24 15:44:39;;;;;;;7.65;4.80;;;;;;;12.95;44.34;99134.45;239497;1196;23142;-76
2021/04/24 15:49:42;;;;;;;7.73;4.50;;;;;;;13.07;44.15;99137.47;239438;1196;23098;-76
2021/04/24 15:54:45;;;;;;;8.55;4.85;;;;;;;13.02;43.78;99132.17;239229;1199;23138;-77
2021/04/24 15:59:48;;;;;;;7.53;4.33;;;;;;;12.89;43.97;99138.33;239625;1194;23129;-76
2021/04/24 16:04:51;;;;;;;6.37;4.03;;;;;;;12.64;44.51;99140.33;239419;1195;23276;-76
2021/04/24 16:09:53;;;;;;;9.57;5.20;;;;;;;12.39;45.09;99134.24;239234;1199;23119;-76
2021/04/24 16:14:56;;;;;;;15.60;8.50;;;;;;;12.21;45.25;99125.09;239299;1196;23105;-76
2021/04/24 16:20:00;;;;;;;16.15;8.95;;;;;;;12.03;45.72;99129.39;239254;1196;23124;-76
2021/04/24 16:25:03;;;;;;;15.17;8.50;;;;;;;11.88;46.52;99124.98;239257;1198;23163;-77
2021/04/24 16:30:08;;;;;;;12.97;7.47;;;;;;;11.82;46.79;99126.11;239224;1196;23130;-76
2021/04/24 16:35:11;;;;;;;14.90;6.50;;;;;;;11.76;47.02;99116.54;239500;1196;25978;-76
2021/04/24 16:40:15;;;;;;;9.85;6.30;;;;;;;11.64;47.30;99120.44;239217;1196;23216;-76
2021/04/24 16:45:18;;;;;;;13.63;6.83;;;;;;;11.59;47.80;99122.38;239604;1196;23247;-76
2021/04/24 16:50:22;;;;;;;12.83;6.13;;;;;;;11.57;48.19;99124.53;239568;1196;24722;-76
2021/04/24 16:55:25;;;;;;;11.20;6.80;;;;;;;11.47;47.96;99120.91;239418;1196;23115;-78
2021/04/24 17:00:27;;;;;;;11.50;7.00;;;;;;;11.35;47.84;99117.81;239382;1199;23134;-76
2021/04/24 17:05:30;;;;;;;13.45;7.95;;;;;;;11.20;48.54;99120.66;239541;1196;23131;-76
2021/04/24 17:10:34;;;;;;;14.95;7.55;;;;;;;11.06;48.85;99125.88;239330;1199;23125;-76
2021/04/24 17:15:36;;;;;;;13.50;8.10;;;;;;;10.98;49.03;99123.81;239456;1196;23115;-76
2021/04/24 17:20:40;;;;;;;10.60;7.05;;;;;;;10.89;49.62;99116.38;239381;1196;23195;-76
2021/04/24 17:25:44;;;;;;;16.75;8.65;;;;;;;10.76;49.40;99114.36;239533;1196;23111;-76
2021/04/24 17:30:47;;;;;;;13.63;7.47;;;;;;;10.63;49.66;99118.46;239328;1194;23111;-76
2021/04/24 17:35:50;;;;;;;13.50;7.70;;;;;;;10.47;49.67;99115.11;239380;1199;26131;-75
2021/04/24 17:40:53;;;;;;;20.30;9.25;;;;;;;10.32;49.90;99115.97;239467;1196;23193;-75
2021/04/24 17:45:57;;;;;;;18.45;10.90;;;;;;;10.13;50.41;99115.02;239574;1196;23135;-75
2021/04/24 17:50:59;;;;;;;17.85;9.50;;;;;;;9.96;50.73;99108.17;239485;1199;23108;-76
2021/04/24 17:56:02;;;;;;;17.20;9.80;;;;;;;9.81;51.02;99118.92;239360;1196;23113;-76
2021/04/24 18:01:05;;;;;;;21.45;10.85;;;;;;;9.71;51.29;99115.23;239494;1196;23111;-75
2021/04/24 18:06:07;;;;;;;17.70;9.00;;;;;;;9.65;51.43;99131.58;239293;1197;23115;-76
2021/04/24 18:11:11;;;;;;;14.00;9.13;;;;;;;9.60;51.41;99127.05;239153;1199;23113;-75
2021/04/24 18:16:15;;;;;;;14.03;8.53;;;;;;;9.57;51.21;99139.09;239454;1196;23103;-76
2021/04/24 18:21:17;;;;;;;14.65;8.00;;;;;;;9.55;51.28;99133.20;239397;1196;23157;-75
2021/04/24 18:26:21;;;;;;;14.40;9.10;;;;;;;9.53;51.28;99137.24;239461;1196;23231;-76
2021/04/24 18:31:24;;;;;;;19.30;10.45;;;;;;;9.48;51.64;99138.04;239494;1195;23119;-76
2021/04/24 18:36:27;;;;;;;23.13;12.77;;;;;;;9.47;51.48;99140.98;239299;1196;23128;-77
2021/04/24 18:41:32;;;;;;;20.30;10.53;;;;;;;9.43;51.08;99138.08;239459;1195;26253;-76
2021/04/24 18:46:35;;;;;;;21.93;12.83;;;;;;;9.40;51.32;99134.06;239385;1196;23121;-75
2021/04/24 18:51:39;;;;;;;23.87;13.70;;;;;;;9.36;50.98;99138.35;239357;1196;23125;-75
2021/04/24 18:56:42;;;;;;;22.50;12.73;;;;;;;9.32;51.48;99139.97;239449;1199;23108;-76
2021/04/24 19:01:45;;;;;;;23.80;13.20;;;;;;;9.29;51.45;99145.03;239738;1196;23108;-75
2021/04/24 19:06:48;;;;;;;22.25;11.70;;;;;;;9.24;51.27;99143.19;239387;1196;23105;-76
2021/04/24 19:11:52;;;;;;;17.90;11.00;;;;;;;9.19;51.26;99148.53;239518;1196;23102;-75
2021/04/24 19:16:55;;;;;;;17.67;9.90;;;;;;;9.14;51.04;99143.21;239538;1196;23116;-75
2021/04/24 19:21:59;;;;;;;17.13;9.13;;;;;;;9.07;51.58;99143.48;239524;1196;23098;-76
2021/04/24 19:27:03;;;;;;;13.77;8.30;;;;;;;9.01;51.17;99144.53;239528;1199;23137;-76
2021/04/24 19:32:06;;;;;;;10.25;7.05;;;;;;;8.92;51.00;99148.84;239213;1196;23791;-75
2021/04/24 19:37:09;;;;;;;11.10;6.97;;;;;;;8.85;51.10;99159.78;239289;1196;24552;-76
2021/04/24 19:42:12;;;;;;;13.10;7.13;;;;;;;8.77;51.64;99161.10;239493;1196;23149;-75
2021/04/24 19:47:16;;;;;;;12.15;6.85;;;;;;;8.69;52.03;99157.11;239719;1196;23165;-75
2021/04/24 19:52:19;;;;;;;13.77;8.30;;;;;;;8.61;51.96;99156.84;239296;1196;23099;-76
2021/04/24 19:57:22;;;;;;;11.65;7.70;;;;;;;8.55;52.06;99158.70;239330;1199;23098;-76
2021/04/24 20:02:26;;;;;;;14.50;8.23;;;;;;;8.48;52.51;99163.48;239839;1196;26654;-76
2021/04/24 20:07:29;;;;;;;16.30;8.30;;;;;;;8.43;52.89;99163.45;239353;1195;23112;-76
2021/04/24 20:12:33;;;;;;;19.10;10.17;;;;;;;8.37;53.01;99168.78;239494;1196;23115;-76
2021/04/24 20:17:37;;;;;;;18.67;10.83;;;;;;;8.34;53.68;99166.64;239543;1196;23112;-77
2021/04/24 20:22:41;;;;;;;15.43;9.63;;;;;;;8.29;53.88;99163.16;239407;1196;23126;-76
2021/04/24 20:27:44;;;;;;;16.00;9.07;;;;;;;8.24;53.34;99166.63;239703;1196;23171;-76
2021/04/24 20:32:47;;;;;;;16.95;10.15;;;;;;;8.19;53.31;99155.93;239481;1196;23135;-76
2021/04/24 20:37:50;;;;;;;15.87;10.47;;;;;;;8.14;53.55;99161.24;239181;1196;23119;-75
2021/04/24 20:42:53;;;;;;;18.80;10.45;;;;;;;8.09;53.92;99166.59;239195;1196;23128;-76
2021/04/24 20:47:56;;;;;;;19.47;10.97;;;;;;;8.00;54.28;99155.59;239673;1199;23112;-75
2021/04/24 20:52:59;;;;;;;19.43;11.23;;;;;;;7.94;54.53;99159.32;239220;1196;23269;-77
2021/04/24 20:58:01;;;;;;;20.20;12.40;;;;;;;7.89;54.16;99165.45;239348;1194;23108;-75
2021/04/24 21:03:05;;;;;;;21.10;11.15;;;;;;;7.79;55.09;99168.05;239434;1196;23167;-76
2021/04/24 21:08:11;;;;;;;18.95;10.00;;;;;;;7.71;55.18;99169.36;239407;1196;23125;-75
2021/04/24 21:13:14;;;;;;;15.57;9.67;;;;;;;7.66;54.74;99170.13;239611;1196;23132;-75
2021/04/24 21:18:17;;;;;;;16.53;9.30;;;;;;;7.63;55.13;99164.52;239283;1195;23118;-76
2021/04/24 21:23:20;;;;;;;16.20;9.07;;;;;;;7.58;55.79;99173.27;239465;1196;23115;-75
2021/04/24 21:28:23;;;;;;;17.03;8.77;;;;;;;7.51;55.12;99162.86;239364;1196;23118;-75
2021/04/24 21:33:25;;;;;;;14.40;7.57;;;;;;;7.44;55.76;99166.80;239380;1199;23128;-75
2021/04/24 21:38:28;;;;;;;11.07;6.53;;;;;;;7.35;55.43;99166.49;239349;1196;23260;-76
2021/04/24 21:43:32;;;;;;;11.65;7.10;;;;;;;7.30;55.42;99172.61;239229;1200;23140;-75
2021/04/24 21:48:35;;;;;;;10.05;6.55;;;;;;;7.25;55.41;99158.45;239106;1196;23141;-75
2021/04/24 21:53:38;;;;;;;12.27;7.13;;;;;;;7.17;55.13;99165.05;239231;1199;23140;-76
2021/04/24 21:58:40;;;;;;;10.67;6.53;;;;;;;7.11;55.88;99163.41;239393;1196;23115;-75
2021/04/24 22:03:43;;;;;;;10.83;6.00;;;;;;;7.02;55.55;99169.21;239405;1196;23118;-75
2021/04/24 22:08:57;;;;;;;13.80;7.03;;;;;;;6.96;55.57;99174.75;239410;1196;23112;-76
2021/04/24 22:14:01;;;;;;;12.65;6.60;;;;;;;6.89;56.01;99166.96;239452;1197;23257;-75
2021/04/24 22:19:04;;;;;;;14.07;6.90;;;;;;;6.83;56.16;99167.98;239592;1195;23138;-74
2021/04/24 22:24:08;;;;;;;14.30;7.47;;;;;;;6.79;56.01;99164.23;239120;1196;23140;-76
2021/04/24 22:29:12;;;;;;;12.87;7.17;;;;;;;6.73;55.65;99162.56;239357;1199;23096;-76
2021/04/24 22:34:14;;;;;;;14.85;7.50;;;;;;;6.70;56.35;99161.20;239625;1196;23112;-76
2021/04/24 22:39:17;;;;;;;11.25;6.70;;;;;;;6.64;55.94;99163.02;239456;1196;23152;-75
2021/04/24 22:44:20;;;;;;;14.10;8.10;;;;;;;6.59;56.50;99157.66;239070;1196;23214;-75
2021/04/24 22:49:24;;;;;;;14.70;7.90;;;;;;;6.54;56.73;99157.61;239451;1196;23108;-75
2021/04/24 22:54:27;;;;;;;14.90;8.13;;;;;;;6.43;57.12;99154.04;239434;1196;23118;-76
2021/04/24 22:59:30;;;;;;;15.33;7.67;;;;;;;6.30;57.39;99149.92;239589;1198;23102;-75
2021/04/24 23:04:32;;;;;;;14.37;7.93;;;;;;;6.18;57.70;99157.25;239519;1196;23115;-76
2021/04/24 23:09:36;;;;;;;16.00;8.30;;;;;;;6.11;58.66;99146.83;239343;1199;23131;-75
2021/04/24 23:14:39;;;;;;;13.07;7.80;;;;;;;6.12;59.06;99148.41;239385;1196;23144;-76
2021/04/24 23:19:43;;;;;;;16.27;8.47;;;;;;;6.14;58.92;99140.17;239269;1196;23114;-75
2021/04/24 23:24:45;;;;;;;12.70;7.33;;;;;;;6.11;59.09;99138.02;239133;1196;23133;-75
2021/04/24 23:29:48;;;;;;;12.60;8.10;;;;;;;6.06;59.26;99132.64;239270;1196;23121;-75
2021/04/24 23:34:51;;;;;;;14.90;8.10;;;;;;;5.95;59.01;99124.52;239272;1196;23198;-75